KAQX

Allendale County Airport

Allendale, South Carolina, USA
METAR KAQX 250035Z AUTO 00000KT 10SM SCT065 BKN095 20/12 A2982 RMK AO2
Observed Flight Rules
Apr-25 @ 00:35 UTC (9 minutes ago) Visual Flight Rules
Visibility Clouds
10 miles
  • Scattered at 6,500' AGL
  • Broken at 9,500' AGL
Temperatures Readings
Current 20°C / 68°F
Dewpoint 12°C / 54°F
Humidity 60%
Altimeter 29.82" Hg
Pressure 1010 hPa
Elevation 49
METAR KAQX 250035Z AUTO 00000KT 10SM SCT065 BKN095 20/12 A2982 RMK AO2
Observed Flight Rules
Apr-25 @ 00:35 UTC
(9 minutes ago)
VFR
Clouds
  • Scattered at 6,500' AGL
  • Broken at 9,500' AGL
Temperature Dewpoint
20°C / 68°F 12°C / 54°F
Humidity Altimeter Pressure
60% 29.82" Hg 1010 hPa